sensor_id;sensor_type;location;lat;lon;timestamp;P1;durP1;ratioP1;P2;durP2;ratioP2
64403;SDS011;50726;54.912;-8.392;2023-02-01T00:01:46;437.73;;;301.45;;
64403;SDS011;50726;54.912;-8.392;2023-02-01T00:04:13;429.05;;;297.10;;
64403;SDS011;50726;54.912;-8.392;2023-02-01T00:06:40;437.52;;;299.75;;
64403;SDS011;50726;54.912;-8.392;2023-02-01T00:09:10;438.48;;;294.40;;
64403;SDS011;50726;54.912;-8.392;2023-02-01T00:11:36;450.88;;;300.67;;
64403;SDS011;50726;54.912;-8.392;2023-02-01T00:14:01;439.00;;;294.80;;
64403;SDS011;50726;54.912;-8.392;2023-02-01T00:16:28;429.75;;;293.85;;
64403;SDS011;50726;54.912;-8.392;2023-02-01T00:18:57;446.13;;;295.98;;
64403;SDS011;50726;54.912;-8.392;2023-02-01T00:21:27;448.05;;;300.52;;
64403;SDS011;50726;54.912;-8.392;2023-02-01T00:23:53;447.00;;;301.90;;
64403;SDS011;50726;54.912;-8.392;2023-02-01T00:26:20;431.15;;;296.88;;
64403;SDS011;50726;54.912;-8.392;2023-02-01T00:28:50;422.65;;;296.13;;
64403;SDS011;50726;54.912;-8.392;2023-02-01T00:31:16;419.15;;;299.10;;
64403;SDS011;50726;54.912;-8.392;2023-02-01T00:33:42;434.77;;;298.98;;
64403;SDS011;50726;54.912;-8.392;2023-02-01T00:36:07;425.23;;;297.42;;
64403;SDS011;50726;54.912;-8.392;2023-02-01T00:38:36;433.67;;;301.52;;
64403;SDS011;50726;54.912;-8.392;2023-02-01T00:41:07;437.40;;;301.00;;
64403;SDS011;50726;54.912;-8.392;2023-02-01T00:43:37;444.02;;;295.95;;
64403;SDS011;50726;54.912;-8.392;2023-02-01T00:46:03;439.02;;;295.50;;
64403;SDS011;50726;54.912;-8.392;2023-02-01T00:48:29;454.45;;;297.27;;
64403;SDS011;50726;54.912;-8.392;2023-02-01T00:51:03;447.63;;;299.55;;
64403;SDS011;50726;54.912;-8.392;2023-02-01T00:53:34;442.15;;;293.67;;
64403;SDS011;50726;54.912;-8.392;2023-02-01T00:56:00;435.67;;;297.75;;
64403;SDS011;50726;54.912;-8.392;2023-02-01T00:58:26;444.23;;;298.13;;
64403;SDS011;50726;54.912;-8.392;2023-02-01T01:03:36;436.90;;;290.77;;
64403;SDS011;50726;54.912;-8.392;2023-02-01T01:06:09;432.52;;;286.17;;
64403;SDS011;50726;54.912;-8.392;2023-02-01T01:08:37;436.17;;;290.08;;
64403;SDS011;50726;54.912;-8.392;2023-02-01T01:11:04;436.73;;;293.63;;
64403;SDS011;50726;54.912;-8.392;2023-02-01T01:13:35;434.25;;;291.83;;
64403;SDS011;50726;54.912;-8.392;2023-02-01T01:16:04;432.95;;;295.88;;
64403;SDS011;50726;54.912;-8.392;2023-02-01T01:18:31;431.15;;;293.58;;
64403;SDS011;50726;54.912;-8.392;2023-02-01T01:20:58;442.70;;;296.88;;
64403;SDS011;50726;54.912;-8.392;2023-02-01T01:23:24;433.90;;;290.85;;
64403;SDS011;50726;54.912;-8.392;2023-02-01T01:25:50;446.63;;;295.98;;
64403;SDS011;50726;54.912;-8.392;2023-02-01T01:28:16;433.23;;;292.52;;
64403;SDS011;50726;54.912;-8.392;2023-02-01T01:30:42;427.17;;;289.52;;
64403;SDS011;50726;54.912;-8.392;2023-02-01T01:33:08;431.55;;;293.30;;
64403;SDS011;50726;54.912;-8.392;2023-02-01T01:35:34;442.25;;;290.75;;
64403;SDS011;50726;54.912;-8.392;2023-02-01T01:38:01;437.92;;;292.40;;
64403;SDS011;50726;54.912;-8.392;2023-02-01T01:40:28;449.10;;;289.95;;
64403;SDS011;50726;54.912;-8.392;2023-02-01T01:42:56;469.95;;;308.80;;
64403;SDS011;50726;54.912;-8.392;2023-02-01T01:45:27;564.90;;;482.35;;
64403;SDS011;50726;54.912;-8.392;2023-02-01T01:47:56;464.15;;;294.85;;
64403;SDS011;50726;54.912;-8.392;2023-02-01T01:50:58;457.05;;;293.77;;
64403;SDS011;50726;54.912;-8.392;2023-02-01T01:53:31;441.27;;;285.17;;
64403;SDS011;50726;54.912;-8.392;2023-02-01T01:56:03;443.38;;;283.17;;
64403;SDS011;50726;54.912;-8.392;2023-02-01T01:58:29;447.02;;;286.48;;
64403;SDS011;50726;54.912;-8.392;2023-02-01T02:00:58;427.45;;;264.60;;
64403;SDS011;50726;54.912;-8.392;2023-02-01T02:03:27;414.85;;;253.93;;
64403;SDS011;50726;54.912;-8.392;2023-02-01T02:06:03;432.52;;;260.10;;
64403;SDS011;50726;54.912;-8.392;2023-02-01T02:08:35;428.52;;;266.10;;
64403;SDS011;50726;54.912;-8.392;2023-02-01T02:11:01;430.52;;;260.98;;
64403;SDS011;50726;54.912;-8.392;2023-02-01T02:13:29;424.98;;;260.10;;
64403;SDS011;50726;54.912;-8.392;2023-02-01T02:18:35;424.27;;;253.27;;
64403;SDS011;50726;54.912;-8.392;2023-02-01T02:21:32;414.70;;;257.25;;
64403;SDS011;50726;54.912;-8.392;2023-02-01T02:24:25;429.77;;;257.17;;
64403;SDS011;50726;54.912;-8.392;2023-02-01T02:27:12;433.67;;;258.23;;
64403;SDS011;50726;54.912;-8.392;2023-02-01T02:38:32;420.38;;;255.65;;
64403;SDS011;50726;54.912;-8.392;2023-02-01T02:44:21;401.30;;;246.27;;
64403;SDS011;50726;54.912;-8.392;2023-02-01T02:47:12;417.73;;;251.02;;
64403;SDS011;50726;54.912;-8.392;2023-02-01T02:52:51;409.30;;;250.73;;
64403;SDS011;50726;54.912;-8.392;2023-02-01T02:55:55;401.45;;;252.15;;
64403;SDS011;50726;54.912;-8.392;2023-02-01T02:58:41;410.52;;;256.98;;
64403;SDS011;50726;54.912;-8.392;2023-02-01T03:01:29;399.13;;;245.88;;
64403;SDS011;50726;54.912;-8.392;2023-02-01T03:04:15;416.13;;;249.25;;
64403;SDS011;50726;54.912;-8.392;2023-02-01T03:06:43;404.05;;;253.85;;
64403;SDS011;50726;54.912;-8.392;2023-02-01T03:09:16;400.13;;;254.07;;
64403;SDS011;50726;54.912;-8.392;2023-02-01T03:11:54;399.67;;;258.38;;
64403;SDS011;50726;54.912;-8.392;2023-02-01T03:14:45;400.73;;;260.92;;
64403;SDS011;50726;54.912;-8.392;2023-02-01T03:17:18;393.38;;;257.98;;
64403;SDS011;50726;54.912;-8.392;2023-02-01T03:19:51;403.20;;;268.13;;
64403;SDS011;50726;54.912;-8.392;2023-02-01T03:22:22;407.98;;;263.80;;
64403;SDS011;50726;54.912;-8.392;2023-02-01T03:24:51;420.15;;;271.88;;
64403;SDS011;50726;54.912;-8.392;2023-02-01T03:27:23;423.08;;;271.52;;
64403;SDS011;50726;54.912;-8.392;2023-02-01T03:30:01;425.60;;;273.63;;
64403;SDS011;50726;54.912;-8.392;2023-02-01T03:32:53;417.52;;;269.00;;
64403;SDS011;50726;54.912;-8.392;2023-02-01T03:38:21;397.23;;;262.80;;
64403;SDS011;50726;54.912;-8.392;2023-02-01T03:41:15;408.50;;;260.00;;
64403;SDS011;50726;54.912;-8.392;2023-02-01T03:46:25;419.23;;;265.95;;
64403;SDS011;50726;54.912;-8.392;2023-02-01T03:48:59;408.15;;;253.25;;
64403;SDS011;50726;54.912;-8.392;2023-02-01T03:51:28;401.73;;;256.90;;
64403;SDS011;50726;54.912;-8.392;2023-02-01T03:53:55;416.30;;;258.40;;
64403;SDS011;50726;54.912;-8.392;2023-02-01T03:56:22;429.42;;;264.67;;
64403;SDS011;50726;54.912;-8.392;2023-02-01T03:58:50;413.95;;;262.50;;
64403;SDS011;50726;54.912;-8.392;2023-02-01T04:01:27;424.02;;;263.02;;
64403;SDS011;50726;54.912;-8.392;2023-02-01T04:03:54;424.38;;;270.58;;
64403;SDS011;50726;54.912;-8.392;2023-02-01T04:06:21;429.13;;;268.40;;
64403;SDS011;50726;54.912;-8.392;2023-02-01T04:08:46;413.08;;;262.00;;
64403;SDS011;50726;54.912;-8.392;2023-02-01T04:11:12;422.58;;;258.33;;
64403;SDS011;50726;54.912;-8.392;2023-02-01T04:13:38;419.48;;;255.80;;
64403;SDS011;50726;54.912;-8.392;2023-02-01T04:16:03;406.85;;;257.33;;
64403;SDS011;50726;54.912;-8.392;2023-02-01T04:18:29;419.80;;;251.13;;
64403;SDS011;50726;54.912;-8.392;2023-02-01T04:20:55;408.83;;;248.40;;
64403;SDS011;50726;54.912;-8.392;2023-02-01T04:23:21;401.95;;;246.85;;
64403;SDS011;50726;54.912;-8.392;2023-02-01T04:25:47;419.27;;;247.80;;
64403;SDS011;50726;54.912;-8.392;2023-02-01T04:28:14;428.60;;;251.77;;
64403;SDS011;50726;54.912;-8.392;2023-02-01T04:30:39;386.92;;;238.90;;
64403;SDS011;50726;54.912;-8.392;2023-02-01T04:33:06;412.35;;;245.43;;
64403;SDS011;50726;54.912;-8.392;2023-02-01T04:35:34;407.27;;;247.60;;
64403;SDS011;50726;54.912;-8.392;2023-02-01T04:38:02;405.27;;;240.20;;
64403;SDS011;50726;54.912;-8.392;2023-02-01T04:40:31;398.13;;;245.85;;
64403;SDS011;50726;54.912;-8.392;2023-02-01T04:43:00;399.13;;;244.77;;
64403;SDS011;50726;54.912;-8.392;2023-02-01T04:45:29;401.08;;;245.55;;
64403;SDS011;50726;54.912;-8.392;2023-02-01T04:47:57;398.50;;;249.80;;
64403;SDS011;50726;54.912;-8.392;2023-02-01T04:50:26;371.33;;;241.80;;
64403;SDS011;50726;54.912;-8.392;2023-02-01T04:52:53;392.90;;;252.60;;
64403;SDS011;50726;54.912;-8.392;2023-02-01T04:55:24;387.00;;;255.45;;
64403;SDS011;50726;54.912;-8.392;2023-02-01T04:57:50;1999.90;;;999.90;;
64403;SDS011;50726;54.912;-8.392;2023-02-01T05:00:16;1999.90;;;999.90;;
64403;SDS011;50726;54.912;-8.392;2023-02-01T05:02:42;1999.90;;;999.90;;
64403;SDS011;50726;54.912;-8.392;2023-02-01T05:05:07;1999.90;;;999.90;;
64403;SDS011;50726;54.912;-8.392;2023-02-01T05:07:34;1999.90;;;999.90;;
64403;SDS011;50726;54.912;-8.392;2023-02-01T05:09:59;1999.90;;;999.90;;
64403;SDS011;50726;54.912;-8.392;2023-02-01T05:12:25;1999.90;;;999.90;;
64403;SDS011;50726;54.912;-8.392;2023-02-01T05:15:10;1999.90;;;999.90;;
64403;SDS011;50726;54.912;-8.392;2023-02-01T05:17:36;1999.90;;;999.90;;
64403;SDS011;50726;54.912;-8.392;2023-02-01T05:20:02;1999.90;;;999.90;;
64403;SDS011;50726;54.912;-8.392;2023-02-01T05:22:28;1999.90;;;999.90;;
64403;SDS011;50726;54.912;-8.392;2023-02-01T05:24:54;1999.90;;;999.90;;
64403;SDS011;50726;54.912;-8.392;2023-02-01T05:27:20;1999.90;;;999.90;;
64403;SDS011;50726;54.912;-8.392;2023-02-01T05:29:46;1999.90;;;999.90;;
64403;SDS011;50726;54.912;-8.392;2023-02-01T05:32:12;1999.90;;;999.90;;
64403;SDS011;50726;54.912;-8.392;2023-02-01T05:34:39;1999.90;;;999.90;;
64403;SDS011;50726;54.912;-8.392;2023-02-01T05:37:05;1999.90;;;999.90;;
64403;SDS011;50726;54.912;-8.392;2023-02-01T05:39:30;1999.90;;;999.90;;
64403;SDS011;50726;54.912;-8.392;2023-02-01T05:41:56;1999.90;;;999.90;;
64403;SDS011;50726;54.912;-8.392;2023-02-01T05:44:22;1999.90;;;999.90;;
64403;SDS011;50726;54.912;-8.392;2023-02-01T05:46:47;1999.90;;;999.90;;
64403;SDS011;50726;54.912;-8.392;2023-02-01T05:49:13;1999.90;;;999.90;;
64403;SDS011;50726;54.912;-8.392;2023-02-01T05:51:39;1999.90;;;999.90;;
64403;SDS011;50726;54.912;-8.392;2023-02-01T05:54:04;1999.90;;;999.90;;
64403;SDS011;50726;54.912;-8.392;2023-02-01T05:56:30;1999.90;;;999.90;;
64403;SDS011;50726;54.912;-8.392;2023-02-01T06:01:24;1999.90;;;999.90;;
64403;SDS011;50726;54.912;-8.392;2023-02-01T06:03:52;1999.90;;;999.90;;
64403;SDS011;50726;54.912;-8.392;2023-02-01T06:06:18;1999.90;;;999.90;;
64403;SDS011;50726;54.912;-8.392;2023-02-01T06:08:44;1999.90;;;999.90;;
64403;SDS011;50726;54.912;-8.392;2023-02-01T06:11:11;1999.90;;;999.90;;
64403;SDS011;50726;54.912;-8.392;2023-02-01T06:13:38;1999.90;;;999.90;;
64403;SDS011;50726;54.912;-8.392;2023-02-01T06:16:04;1999.90;;;999.90;;
64403;SDS011;50726;54.912;-8.392;2023-02-01T06:18:32;1999.90;;;999.90;;
64403;SDS011;50726;54.912;-8.392;2023-02-01T06:21:01;1999.90;;;999.90;;
64403;SDS011;50726;54.912;-8.392;2023-02-01T06:23:28;1999.90;;;999.90;;
64403;SDS011;50726;54.912;-8.392;2023-02-01T06:25:59;1999.90;;;999.90;;
64403;SDS011;50726;54.912;-8.392;2023-02-01T06:28:26;1999.90;;;999.90;;
64403;SDS011;50726;54.912;-8.392;2023-02-01T06:30:54;1999.90;;;999.90;;
64403;SDS011;50726;54.912;-8.392;2023-02-01T06:33:20;1999.90;;;999.90;;
64403;SDS011;50726;54.912;-8.392;2023-02-01T06:35:46;1999.90;;;999.90;;
64403;SDS011;50726;54.912;-8.392;2023-02-01T06:38:12;1999.90;;;999.90;;
64403;SDS011;50726;54.912;-8.392;2023-02-01T06:40:39;1999.90;;;999.90;;
64403;SDS011;50726;54.912;-8.392;2023-02-01T06:43:07;1999.90;;;999.90;;
64403;SDS011;50726;54.912;-8.392;2023-02-01T06:45:32;1999.90;;;999.90;;
64403;SDS011;50726;54.912;-8.392;2023-02-01T06:47:58;1999.90;;;999.90;;
64403;SDS011;50726;54.912;-8.392;2023-02-01T06:50:26;1999.90;;;999.90;;
64403;SDS011;50726;54.912;-8.392;2023-02-01T06:52:52;1999.90;;;999.90;;
64403;SDS011;50726;54.912;-8.392;2023-02-01T06:55:17;1999.90;;;999.90;;
64403;SDS011;50726;54.912;-8.392;2023-02-01T06:57:43;1999.90;;;999.90;;
64403;SDS011;50726;54.912;-8.392;2023-02-01T07:00:09;1999.90;;;999.90;;
64403;SDS011;50726;54.912;-8.392;2023-02-01T07:02:35;1999.90;;;999.90;;
64403;SDS011;50726;54.912;-8.392;2023-02-01T07:05:02;1999.90;;;999.90;;
64403;SDS011;50726;54.912;-8.392;2023-02-01T07:07:27;1999.90;;;999.90;;
64403;SDS011;50726;54.912;-8.392;2023-02-01T07:09:53;1999.90;;;999.90;;
64403;SDS011;50726;54.912;-8.392;2023-02-01T07:12:18;1999.90;;;999.90;;
64403;SDS011;50726;54.912;-8.392;2023-02-01T07:14:44;1999.90;;;999.90;;
64403;SDS011;50726;54.912;-8.392;2023-02-01T07:17:10;1999.90;;;999.90;;
64403;SDS011;50726;54.912;-8.392;2023-02-01T07:19:35;1999.90;;;999.90;;
64403;SDS011;50726;54.912;-8.392;2023-02-01T07:22:01;1999.90;;;999.90;;
64403;SDS011;50726;54.912;-8.392;2023-02-01T07:24:27;1999.90;;;999.90;;
64403;SDS011;50726;54.912;-8.392;2023-02-01T07:26:54;1999.90;;;999.90;;
64403;SDS011;50726;54.912;-8.392;2023-02-01T07:29:19;1999.90;;;999.90;;
64403;SDS011;50726;54.912;-8.392;2023-02-01T07:31:48;1999.90;;;999.90;;
64403;SDS011;50726;54.912;-8.392;2023-02-01T07:34:14;1999.90;;;999.90;;
64403;SDS011;50726;54.912;-8.392;2023-02-01T07:36:40;1999.90;;;999.90;;
64403;SDS011;50726;54.912;-8.392;2023-02-01T07:39:07;1999.90;;;999.90;;
64403;SDS011;50726;54.912;-8.392;2023-02-01T07:41:32;1999.90;;;999.90;;
64403;SDS011;50726;54.912;-8.392;2023-02-01T07:43:58;1999.90;;;999.90;;
64403;SDS011;50726;54.912;-8.392;2023-02-01T07:46:25;1999.90;;;999.90;;
64403;SDS011;50726;54.912;-8.392;2023-02-01T07:48:50;1999.90;;;999.90;;
64403;SDS011;50726;54.912;-8.392;2023-02-01T07:51:16;1999.90;;;999.90;;
64403;SDS011;50726;54.912;-8.392;2023-02-01T07:53:44;1999.90;;;999.90;;
64403;SDS011;50726;54.912;-8.392;2023-02-01T07:56:14;1999.90;;;999.90;;
64403;SDS011;50726;54.912;-8.392;2023-02-01T07:58:42;1999.90;;;999.90;;
64403;SDS011;50726;54.912;-8.392;2023-02-01T08:01:18;1999.90;;;999.90;;
64403;SDS011;50726;54.912;-8.392;2023-02-01T08:03:53;1999.90;;;999.90;;
64403;SDS011;50726;54.912;-8.392;2023-02-01T08:06:22;1999.90;;;999.90;;
64403;SDS011;50726;54.912;-8.392;2023-02-01T08:08:50;1999.90;;;999.90;;
64403;SDS011;50726;54.912;-8.392;2023-02-01T08:11:17;1999.90;;;999.90;;
64403;SDS011;50726;54.912;-8.392;2023-02-01T08:13:44;1999.90;;;999.90;;
64403;SDS011;50726;54.912;-8.392;2023-02-01T08:16:11;1999.90;;;999.90;;
64403;SDS011;50726;54.912;-8.392;2023-02-01T08:18:38;1999.90;;;999.90;;
64403;SDS011;50726;54.912;-8.392;2023-02-01T08:23:32;1999.90;;;999.90;;
64403;SDS011;50726;54.912;-8.392;2023-02-01T08:26:10;1999.90;;;999.90;;
64403;SDS011;50726;54.912;-8.392;2023-02-01T08:28:41;1999.90;;;999.90;;
64403;SDS011;50726;54.912;-8.392;2023-02-01T08:31:10;1999.90;;;999.90;;
64403;SDS011;50726;54.912;-8.392;2023-02-01T08:33:40;1999.90;;;999.90;;
64403;SDS011;50726;54.912;-8.392;2023-02-01T08:36:07;1999.90;;;999.90;;
64403;SDS011;50726;54.912;-8.392;2023-02-01T08:38:38;1999.90;;;999.90;;
64403;SDS011;50726;54.912;-8.392;2023-02-01T08:41:05;1999.90;;;999.90;;
64403;SDS011;50726;54.912;-8.392;2023-02-01T08:43:35;1999.90;;;999.90;;
64403;SDS011;50726;54.912;-8.392;2023-02-01T08:46:01;1999.90;;;999.90;;
64403;SDS011;50726;54.912;-8.392;2023-02-01T08:48:28;1999.90;;;999.90;;
64403;SDS011;50726;54.912;-8.392;2023-02-01T08:50:53;1999.90;;;999.90;;
64403;SDS011;50726;54.912;-8.392;2023-02-01T08:53:19;1999.90;;;999.90;;
64403;SDS011;50726;54.912;-8.392;2023-02-01T08:55:45;1999.90;;;999.90;;
64403;SDS011;50726;54.912;-8.392;2023-02-01T08:58:13;1999.90;;;999.90;;
64403;SDS011;50726;54.912;-8.392;2023-02-01T09:00:39;1999.90;;;999.90;;
64403;SDS011;50726;54.912;-8.392;2023-02-01T09:03:05;1999.90;;;999.90;;
64403;SDS011;50726;54.912;-8.392;2023-02-01T09:05:35;1999.90;;;999.90;;
64403;SDS011;50726;54.912;-8.392;2023-02-01T09:08:01;1999.90;;;999.90;;
64403;SDS011;50726;54.912;-8.392;2023-02-01T09:10:27;1999.90;;;999.90;;
64403;SDS011;50726;54.912;-8.392;2023-02-01T09:12:52;1999.90;;;999.90;;
64403;SDS011;50726;54.912;-8.392;2023-02-01T09:15:19;1999.90;;;999.90;;
64403;SDS011;50726;54.912;-8.392;2023-02-01T09:17:44;1999.90;;;999.90;;
64403;SDS011;50726;54.912;-8.392;2023-02-01T09:20:10;1999.90;;;999.90;;
64403;SDS011;50726;54.912;-8.392;2023-02-01T09:22:37;1999.90;;;999.90;;
64403;SDS011;50726;54.912;-8.392;2023-02-01T09:25:05;1999.90;;;999.90;;
64403;SDS011;50726;54.912;-8.392;2023-02-01T09:27:32;1999.90;;;999.90;;
64403;SDS011;50726;54.912;-8.392;2023-02-01T09:29:58;1999.90;;;999.90;;
64403;SDS011;50726;54.912;-8.392;2023-02-01T09:32:24;1999.90;;;999.90;;
64403;SDS011;50726;54.912;-8.392;2023-02-01T09:34:49;1999.90;;;999.90;;
64403;SDS011;50726;54.912;-8.392;2023-02-01T09:37:16;1999.90;;;999.90;;
64403;SDS011;50726;54.912;-8.392;2023-02-01T09:39:42;1999.90;;;999.90;;
64403;SDS011;50726;54.912;-8.392;2023-02-01T09:45:14;1999.90;;;999.90;;
64403;SDS011;50726;54.912;-8.392;2023-02-01T09:47:51;1999.90;;;999.90;;
64403;SDS011;50726;54.912;-8.392;2023-02-01T09:50:21;1999.90;;;999.90;;
64403;SDS011;50726;54.912;-8.392;2023-02-01T09:53:06;1999.90;;;999.90;;
64403;SDS011;50726;54.912;-8.392;2023-02-01T09:55:58;1999.90;;;999.90;;
64403;SDS011;50726;54.912;-8.392;2023-02-01T09:58:37;1999.90;;;999.90;;
64403;SDS011;50726;54.912;-8.392;2023-02-01T10:01:12;1999.90;;;999.90;;
64403;SDS011;50726;54.912;-8.392;2023-02-01T10:03:43;1999.90;;;999.90;;
64403;SDS011;50726;54.912;-8.392;2023-02-01T10:06:27;1999.90;;;999.90;;
64403;SDS011;50726;54.912;-8.392;2023-02-01T10:14:44;1999.90;;;999.90;;
64403;SDS011;50726;54.912;-8.392;2023-02-01T10:17:23;1999.90;;;999.90;;
64403;SDS011;50726;54.912;-8.392;2023-02-01T10:23:01;1999.90;;;999.90;;
64403;SDS011;50726;54.912;-8.392;2023-02-01T10:25:56;1999.90;;;999.90;;
64403;SDS011;50726;54.912;-8.392;2023-02-01T10:28:27;1999.90;;;999.90;;
64403;SDS011;50726;54.912;-8.392;2023-02-01T10:30:54;1999.90;;;999.90;;
64403;SDS011;50726;54.912;-8.392;2023-02-01T10:33:24;1999.90;;;999.90;;
64403;SDS011;50726;54.912;-8.392;2023-02-01T10:36:01;1999.90;;;999.90;;
64403;SDS011;50726;54.912;-8.392;2023-02-01T10:38:35;1999.90;;;999.90;;
64403;SDS011;50726;54.912;-8.392;2023-02-01T10:41:23;1999.90;;;999.90;;
64403;SDS011;50726;54.912;-8.392;2023-02-01T10:43:49;1999.90;;;999.90;;
64403;SDS011;50726;54.912;-8.392;2023-02-01T10:46:20;1999.90;;;999.90;;
64403;SDS011;50726;54.912;-8.392;2023-02-01T10:48:48;1999.90;;;999.90;;
64403;SDS011;50726;54.912;-8.392;2023-02-01T10:51:16;1999.90;;;999.90;;
64403;SDS011;50726;54.912;-8.392;2023-02-01T10:53:49;1999.90;;;999.90;;
64403;SDS011;50726;54.912;-8.392;2023-02-01T10:56:22;1999.90;;;999.90;;
64403;SDS011;50726;54.912;-8.392;2023-02-01T10:58:49;1999.90;;;999.90;;
64403;SDS011;50726;54.912;-8.392;2023-02-01T11:01:20;1999.90;;;999.90;;
64403;SDS011;50726;54.912;-8.392;2023-02-01T11:03:54;1417.15;;;828.58;;
64403;SDS011;50726;54.912;-8.392;2023-02-01T11:08:55;1367.72;;;829.53;;
64403;SDS011;50726;54.912;-8.392;2023-02-01T11:14:18;1383.88;;;792.00;;
64403;SDS011;50726;54.912;-8.392;2023-02-01T11:16:51;1383.68;;;837.28;;
64403;SDS011;50726;54.912;-8.392;2023-02-01T11:21:44;1789.20;;;837.97;;
64403;SDS011;50726;54.912;-8.392;2023-02-01T11:24:26;1913.60;;;878.10;;
64403;SDS011;50726;54.912;-8.392;2023-02-01T11:26:55;1831.45;;;870.40;;
64403;SDS011;50726;54.912;-8.392;2023-02-01T11:29:22;1791.72;;;894.45;;
64403;SDS011;50726;54.912;-8.392;2023-02-01T11:31:57;1750.72;;;890.28;;
64403;SDS011;50726;54.912;-8.392;2023-02-01T11:34:25;1730.70;;;909.33;;
64403;SDS011;50726;54.912;-8.392;2023-02-01T11:36:58;1716.22;;;926.13;;
64403;SDS011;50726;54.912;-8.392;2023-02-01T11:39:35;1758.80;;;931.47;;
64403;SDS011;50726;54.912;-8.392;2023-02-01T11:42:14;1752.18;;;945.63;;
64403;SDS011;50726;54.912;-8.392;2023-02-01T11:44:45;1778.93;;;951.47;;
64403;SDS011;50726;54.912;-8.392;2023-02-01T11:47:31;1816.20;;;969.15;;
64403;SDS011;50726;54.912;-8.392;2023-02-01T11:50:09;1815.25;;;977.92;;
64403;SDS011;50726;54.912;-8.392;2023-02-01T12:01:29;1775.10;;;998.85;;
64403;SDS011;50726;54.912;-8.392;2023-02-01T12:06:55;1744.40;;;999.90;;
64403;SDS011;50726;54.912;-8.392;2023-02-01T12:09:42;1669.53;;;999.90;;
64403;SDS011;50726;54.912;-8.392;2023-02-01T12:12:42;1576.90;;;999.90;;
64403;SDS011;50726;54.912;-8.392;2023-02-01T12:15:46;1514.10;;;999.90;;
64403;SDS011;50726;54.912;-8.392;2023-02-01T12:32:25;1482.10;;;999.90;;
64403;SDS011;50726;54.912;-8.392;2023-02-01T12:43:56;1412.95;;;976.55;;
64403;SDS011;50726;54.912;-8.392;2023-02-01T12:52:32;1999.90;;;953.88;;
64403;SDS011;50726;54.912;-8.392;2023-02-01T12:55:33;1934.30;;;961.05;;
64403;SDS011;50726;54.912;-8.392;2023-02-01T12:58:12;1729.40;;;972.17;;
64403;SDS011;50726;54.912;-8.392;2023-02-01T13:00:44;1666.97;;;991.88;;
64403;SDS011;50726;54.912;-8.392;2023-02-01T13:03:41;1559.45;;;995.60;;
64403;SDS011;50726;54.912;-8.392;2023-02-01T13:06:24;1524.90;;;999.90;;
64403;SDS011;50726;54.912;-8.392;2023-02-01T13:09:07;1494.57;;;999.90;;
64403;SDS011;50726;54.912;-8.392;2023-02-01T13:11:45;1513.43;;;999.90;;
64403;SDS011;50726;54.912;-8.392;2023-02-01T13:17:02;1396.90;;;999.90;;
64403;SDS011;50726;54.912;-8.392;2023-02-01T13:25:15;1408.65;;;999.90;;
64403;SDS011;50726;54.912;-8.392;2023-02-01T13:27:49;1407.25;;;999.90;;
64403;SDS011;50726;54.912;-8.392;2023-02-01T13:36:05;1377.65;;;975.78;;
64403;SDS011;50726;54.912;-8.392;2023-02-01T13:41:52;1367.65;;;994.05;;
64403;SDS011;50726;54.912;-8.392;2023-02-01T13:44:21;1384.55;;;999.58;;
64403;SDS011;50726;54.912;-8.392;2023-02-01T13:47:00;1368.50;;;982.50;;
64403;SDS011;50726;54.912;-8.392;2023-02-01T13:49:29;1373.83;;;976.30;;
64403;SDS011;50726;54.912;-8.392;2023-02-01T13:52:01;1354.32;;;970.75;;
64403;SDS011;50726;54.912;-8.392;2023-02-01T13:56:55;1102.15;;;854.95;;
64403;SDS011;50726;54.912;-8.392;2023-02-01T14:05:59;1064.25;;;838.80;;
64403;SDS011;50726;54.912;-8.392;2023-02-01T14:08:09;1070.95;;;834.80;;
64403;SDS011;50726;54.912;-8.392;2023-02-01T14:10:54;1067.10;;;832.60;;
64403;SDS011;50726;54.912;-8.392;2023-02-01T14:13:24;1071.22;;;843.65;;
64403;SDS011;50726;54.912;-8.392;2023-02-01T14:23:42;1054.38;;;826.97;;
64403;SDS011;50726;54.912;-8.392;2023-02-01T14:26:12;1055.65;;;824.28;;
64403;SDS011;50726;54.912;-8.392;2023-02-01T14:37:29;1146.82;;;884.22;;
64403;SDS011;50726;54.912;-8.392;2023-02-01T14:40:01;1162.75;;;871.42;;
64403;SDS011;50726;54.912;-8.392;2023-02-01T14:42:49;1128.90;;;871.88;;
64403;SDS011;50726;54.912;-8.392;2023-02-01T14:55:35;1176.45;;;905.83;;
64403;SDS011;50726;54.912;-8.392;2023-02-01T15:01:19;1185.22;;;909.72;;
64403;SDS011;50726;54.912;-8.392;2023-02-01T15:04:00;1193.35;;;912.03;;
64403;SDS011;50726;54.912;-8.392;2023-02-01T15:06:36;1185.75;;;902.13;;
64403;SDS011;50726;54.912;-8.392;2023-02-01T15:09:36;1169.78;;;906.95;;
64403;SDS011;50726;54.912;-8.392;2023-02-01T15:17:19;1193.30;;;920.38;;
64403;SDS011;50726;54.912;-8.392;2023-02-01T15:19:59;1185.07;;;934.88;;
64403;SDS011;50726;54.912;-8.392;2023-02-01T15:22:28;1162.80;;;932.33;;
64403;SDS011;50726;54.912;-8.392;2023-02-01T15:24:56;1172.32;;;936.63;;
64403;SDS011;50726;54.912;-8.392;2023-02-01T15:27:23;1174.18;;;942.97;;
64403;SDS011;50726;54.912;-8.392;2023-02-01T15:29:51;1196.32;;;939.10;;
64403;SDS011;50726;54.912;-8.392;2023-02-01T15:32:35;1205.25;;;957.10;;
64403;SDS011;50726;54.912;-8.392;2023-02-01T15:35:05;1218.70;;;966.17;;
64403;SDS011;50726;54.912;-8.392;2023-02-01T15:37:51;1221.15;;;967.13;;
64403;SDS011;50726;54.912;-8.392;2023-02-01T15:40:20;1207.13;;;959.63;;
64403;SDS011;50726;54.912;-8.392;2023-02-01T15:42:51;1228.50;;;978.17;;
64403;SDS011;50726;54.912;-8.392;2023-02-01T15:45:21;1217.45;;;973.20;;
64403;SDS011;50726;54.912;-8.392;2023-02-01T15:47:51;1237.00;;;974.88;;
64403;SDS011;50726;54.912;-8.392;2023-02-01T15:50:18;1220.95;;;969.85;;
64403;SDS011;50726;54.912;-8.392;2023-02-01T15:52:49;1234.35;;;972.45;;
64403;SDS011;50726;54.912;-8.392;2023-02-01T15:58:00;1204.82;;;952.00;;
64403;SDS011;50726;54.912;-8.392;2023-02-01T16:00:31;1183.78;;;934.22;;
64403;SDS011;50726;54.912;-8.392;2023-02-01T16:06:06;1112.90;;;903.78;;
64403;SDS011;50726;54.912;-8.392;2023-02-01T16:11:29;1128.80;;;905.42;;
64403;SDS011;50726;54.912;-8.392;2023-02-01T16:14:00;1121.35;;;901.13;;
64403;SDS011;50726;54.912;-8.392;2023-02-01T16:16:29;1108.25;;;898.92;;
64403;SDS011;50726;54.912;-8.392;2023-02-01T16:18:55;1053.20;;;888.35;;
64403;SDS011;50726;54.912;-8.392;2023-02-01T16:21:20;1013.55;;;887.88;;
64403;SDS011;50726;54.912;-8.392;2023-02-01T16:23:50;975.38;;;867.85;;
64403;SDS011;50726;54.912;-8.392;2023-02-01T16:26:16;965.15;;;860.38;;
64403;SDS011;50726;54.912;-8.392;2023-02-01T16:28:42;941.42;;;842.15;;
64403;SDS011;50726;54.912;-8.392;2023-02-01T16:31:11;922.70;;;824.25;;
64403;SDS011;50726;54.912;-8.392;2023-02-01T16:33:45;919.63;;;821.40;;
64403;SDS011;50726;54.912;-8.392;2023-02-01T16:36:14;946.40;;;848.92;;
64403;SDS011;50726;54.912;-8.392;2023-02-01T16:38:44;932.28;;;835.08;;